createdAt,value
2022-11-17T00:00:35.170Z,96293.21
2022-11-17T00:03:05.349Z,96292.72
2022-11-17T00:05:35.376Z,96289.72
2022-11-17T00:08:03.281Z,96285.95
2022-11-17T00:10:31.238Z,96278.33
2022-11-17T00:13:17.740Z,96277.48
2022-11-17T00:15:45.930Z,96273.98
2022-11-17T00:18:32.520Z,96281.31
2022-11-17T00:21:23.675Z,96279.95
2022-11-17T00:23:51.812Z,96277.13
2022-11-17T00:26:21.791Z,96272.16
2022-11-17T00:28:54.725Z,96271.27
2022-11-17T00:31:42.312Z,96267.11
2022-11-17T00:34:12.834Z,96267.64
2022-11-17T00:36:45.131Z,96270.48
2022-11-17T00:39:13.619Z,96271.61
2022-11-17T00:41:41.596Z,96270.72
2022-11-17T00:44:10.057Z,96265.40
2022-11-17T00:46:38.643Z,96263.09
2022-11-17T00:49:07.517Z,96258.88
2022-11-17T00:51:35.911Z,96257.29
2022-11-17T00:54:05.311Z,96251.67
2022-11-17T00:56:34.099Z,96250.30
2022-11-17T00:59:02.202Z,96250.60
2022-11-17T01:01:30.474Z,96242.11
2022-11-17T01:04:04.965Z,96234.04
2022-11-17T01:06:34.272Z,96231.38
2022-11-17T01:09:03.560Z,96228.96
2022-11-17T01:11:31.732Z,96229.27
2022-11-17T01:14:00.726Z,96226.04
2022-11-17T01:16:29.672Z,96223.81
2022-11-17T01:18:59.739Z,96213.17
2022-11-17T01:21:28.519Z,96207.45
2022-11-17T01:23:57.517Z,96202.73
2022-11-17T01:26:26.542Z,96200.47
2022-11-17T01:28:54.826Z,96200.82
2022-11-17T01:31:24.181Z,96198.86
2022-11-17T01:33:52.527Z,96198.19
2022-11-17T01:36:22.194Z,96191.09
2022-11-17T01:38:50.241Z,96189.19
2022-11-17T01:41:21.274Z,96188.80
2022-11-17T01:43:49.421Z,96182.41
2022-11-17T01:46:38.002Z,96174.59
2022-11-17T01:49:18.363Z,96173.77
2022-11-17T01:51:48.759Z,96171.62
2022-11-17T01:54:18.257Z,96168.78
2022-11-17T01:56:48.376Z,96158.41
2022-11-17T01:59:20.301Z,96156.04
2022-11-17T02:02:06.502Z,96153.89
2022-11-17T02:04:44.404Z,96159.80
2022-11-17T02:07:33.087Z,96162.76
2022-11-17T02:10:01.904Z,96155.69
2022-11-17T02:12:31.920Z,96150.23
2022-11-17T02:15:00.499Z,96145.35
2022-11-17T02:17:37.222Z,96143.48
2022-11-17T02:20:05.378Z,96137.48
2022-11-17T02:22:39.253Z,96138.69
2022-11-17T02:25:16.394Z,96134.44
2022-11-17T02:27:44.390Z,96130.17
2022-11-17T02:30:14.217Z,96124.62
2022-11-17T02:32:57.205Z,96124.45
2022-11-17T02:35:25.203Z,96127.16
2022-11-17T02:38:05.421Z,96121.25
2022-11-17T02:41:03.041Z,96118.69
2022-11-17T02:44:07.017Z,96120.06
2022-11-17T02:46:41.269Z,96114.36
2022-11-17T02:49:29.864Z,96106.36
2022-11-17T02:51:58.895Z,96106.25
2022-11-17T02:54:28.983Z,96106.41
2022-11-17T02:56:56.879Z,96099.94
2022-11-17T02:59:33.982Z,96100.85
2022-11-17T03:02:01.867Z,96106.59
2022-11-17T03:04:34.722Z,96105.41
2022-11-17T03:07:22.057Z,96101.48
2022-11-17T03:10:03.540Z,96098.53
2022-11-17T03:12:39.190Z,96092.36
2022-11-17T03:15:17.826Z,96093.39
2022-11-17T03:18:11.247Z,96091.35
2022-11-17T03:20:39.317Z,96087.52
2022-11-17T03:23:10.459Z,96082.48
2022-11-17T03:25:43.037Z,96080.63
2022-11-17T03:28:12.253Z,96077.77
2022-11-17T03:30:42.077Z,96074.21
2022-11-17T03:33:15.357Z,96070.57
2022-11-17T03:35:50.641Z,96070.57
2022-11-17T03:38:21.004Z,96065.66
2022-11-17T03:40:50.715Z,96060.67
2022-11-17T03:43:20.623Z,96062.20
2022-11-17T03:45:50.385Z,96059.19
2022-11-17T03:48:27.548Z,96063.23
2022-11-17T03:50:59.290Z,96062.35
2022-11-17T03:53:27.169Z,96064.98
2022-11-17T03:56:13.549Z,96060.83
2022-11-17T03:58:50.059Z,96058.30
2022-11-17T04:01:20.106Z,96055.46
2022-11-17T04:03:48.401Z,96052.84
2022-11-17T04:06:16.675Z,96051.92
2022-11-17T04:08:44.753Z,96052.45
2022-11-17T04:11:31.292Z,96050.91
2022-11-17T04:14:17.941Z,96045.13
2022-11-17T04:16:46.131Z,96046.88
2022-11-17T04:19:14.232Z,96042.27
2022-11-17T04:21:42.175Z,96045.41
2022-11-17T04:24:10.075Z,96048.89
2022-11-17T04:26:56.946Z,96052.23
2022-11-17T04:29:25.038Z,96051.77
2022-11-17T04:31:52.880Z,96051.11
2022-11-17T04:34:20.916Z,96048.61
2022-11-17T04:36:48.795Z,96046.06
2022-11-17T04:39:16.965Z,96051.95
2022-11-17T04:41:54.229Z,96047.27
2022-11-17T04:44:26.956Z,96045.56
2022-11-17T04:46:55.945Z,96047.88
2022-11-17T04:49:24.957Z,96047.70
2022-11-17T04:51:53.736Z,96042.73
2022-11-17T04:54:24.593Z,96041.94
2022-11-17T04:56:53.228Z,96039.38
2022-11-17T04:59:21.829Z,96040.08
2022-11-17T05:01:50.288Z,96041.23
2022-11-17T05:04:39.683Z,96042.91
2022-11-17T05:07:08.485Z,96046.19
2022-11-17T05:09:36.843Z,96041.29
2022-11-17T05:12:23.525Z,96041.48
2022-11-17T05:14:52.621Z,96041.45
2022-11-17T05:17:20.819Z,96041.55
2022-11-17T05:19:49.305Z,96036.60
2022-11-17T05:22:37.855Z,96040.14
2022-11-17T05:25:05.903Z,96040.05
2022-11-17T05:27:34.605Z,96045.67
2022-11-17T05:30:03.597Z,96045.66
2022-11-17T05:32:31.545Z,96042.61
2022-11-17T05:34:59.749Z,96036.54
2022-11-17T05:37:28.012Z,96037.05
2022-11-17T05:39:56.051Z,96035.06
2022-11-17T05:42:24.331Z,96034.85
2022-11-17T05:44:52.375Z,96037.94
2022-11-17T05:47:20.284Z,96037.27
2022-11-17T05:49:48.267Z,96038.32
2022-11-17T05:52:16.249Z,96038.50
2022-11-17T05:54:44.309Z,96042.03
2022-11-17T05:57:14.795Z,96042.52
2022-11-17T05:59:45.965Z,96047.31
2022-11-17T06:02:16.615Z,96052.95
2022-11-17T06:04:46.518Z,96054.65
2022-11-17T06:07:15.868Z,96054.89
2022-11-17T06:09:43.828Z,96052.85
2022-11-17T06:12:15.606Z,96050.93
2022-11-17T06:14:43.819Z,96043.20
2022-11-17T06:17:23.363Z,96043.10
2022-11-17T06:19:54.914Z,96048.36
2022-11-17T06:22:24.311Z,96049.88
2022-11-17T06:24:52.962Z,96057.09
2022-11-17T06:27:21.170Z,96066.16
2022-11-17T06:29:49.924Z,96064.38
2022-11-17T06:32:19.249Z,96063.29
2022-11-17T06:34:54.917Z,96065.89
2022-11-17T06:37:24.665Z,96061.06
2022-11-17T06:39:52.806Z,96057.27
2022-11-17T06:42:40.621Z,96056.40
2022-11-17T06:45:08.839Z,96060.64
2022-11-17T06:47:36.619Z,96054.02
2022-11-17T06:50:05.072Z,96057.38
2022-11-17T06:52:33.221Z,96061.25
2022-11-17T06:55:01.285Z,96061.81
2022-11-17T06:57:30.073Z,96068.67
2022-11-17T06:59:58.147Z,96067.52
2022-11-17T07:02:26.117Z,96070.05
2022-11-17T07:04:54.246Z,96073.42
2022-11-17T07:07:22.388Z,96075.98
2022-11-17T07:09:50.797Z,96068.64
2022-11-17T07:12:18.912Z,96066.90
2022-11-17T07:14:46.978Z,96067.46
2022-11-17T07:17:15.049Z,96064.98
2022-11-17T07:19:43.220Z,96061.83
2022-11-17T07:22:11.294Z,96068.59
2022-11-17T07:24:39.567Z,96080.13
2022-11-17T07:27:08.268Z,96077.65
2022-11-17T07:29:36.529Z,96074.51
2022-11-17T07:32:05.031Z,96077.71
2022-11-17T07:34:33.285Z,96072.06
2022-11-17T07:37:01.560Z,96078.13
2022-11-17T07:39:29.532Z,96082.42
2022-11-17T07:41:57.494Z,96078.55
2022-11-17T07:44:26.798Z,96078.88
2022-11-17T07:46:55.083Z,96082.56
2022-11-17T07:49:23.656Z,96080.29
2022-11-17T07:51:52.031Z,96082.27
2022-11-17T07:54:20.614Z,96087.65
2022-11-17T07:56:48.591Z,96085.73
2022-11-17T07:59:21.197Z,96089.34
2022-11-17T08:01:49.637Z,96091.81
2022-11-17T08:04:18.013Z,96098.16
2022-11-17T08:06:46.191Z,96098.59
2022-11-17T08:09:16.116Z,96096.46
2022-11-17T08:11:45.361Z,96098.60
2022-11-17T08:14:13.580Z,96095.96
2022-11-17T08:16:41.761Z,96093.15
2022-11-17T08:19:14.631Z,96092.48
2022-11-17T08:21:42.702Z,96095.80
2022-11-17T08:24:12.204Z,96096.96
2022-11-17T08:26:40.488Z,96096.20
2022-11-17T08:29:08.854Z,96093.52
2022-11-17T08:31:37.235Z,96096.02
2022-11-17T08:34:05.612Z,96103.54
2022-11-17T08:36:33.590Z,96105.64
2022-11-17T08:39:01.548Z,96105.76
2022-11-17T08:41:29.930Z,96105.70
2022-11-17T08:43:58.409Z,96107.34
2022-11-17T08:46:26.891Z,96108.98
2022-11-17T08:48:57.097Z,96108.49
2022-11-17T08:51:25.796Z,96109.10
2022-11-17T08:53:53.762Z,96115.70
2022-11-17T08:56:22.038Z,96115.55
2022-11-17T08:58:50.105Z,96114.55
2022-11-17T09:01:19.085Z,96111.98
2022-11-17T09:03:48.085Z,96109.55
2022-11-17T09:06:16.982Z,96108.59
2022-11-17T09:08:47.457Z,96111.55
2022-11-17T09:11:16.907Z,96120.12
2022-11-17T09:13:47.166Z,96126.12
2022-11-17T09:16:16.333Z,96126.77
2022-11-17T09:18:44.808Z,96128.85
2022-11-17T09:21:14.004Z,96123.80
2022-11-17T09:23:42.591Z,96125.44
2022-11-17T09:26:12.500Z,96128.27
2022-11-17T09:28:41.062Z,96134.10
2022-11-17T09:31:16.670Z,96137.44
2022-11-17T09:33:44.931Z,96141.00
2022-11-17T09:36:13.917Z,96135.80
2022-11-17T09:38:42.135Z,96131.96
2022-11-17T09:41:22.322Z,96131.73
2022-11-17T09:43:59.690Z,96134.88
2022-11-17T09:46:33.624Z,96138.81
2022-11-17T09:49:11.112Z,96131.98
2022-11-17T09:51:42.662Z,96132.54
2022-11-17T09:54:18.906Z,96130.31
2022-11-17T09:56:48.328Z,96125.31
2022-11-17T09:59:19.474Z,96118.49
2022-11-17T10:01:47.412Z,96127.36
2022-11-17T10:04:17.012Z,96126.42
2022-11-17T10:06:46.313Z,96129.91
2022-11-17T10:09:26.442Z,96127.73
2022-11-17T10:11:59.789Z,96129.48
2022-11-17T10:14:28.425Z,96136.54
2022-11-17T10:16:58.088Z,96137.81
2022-11-17T10:19:27.987Z,96141.43
2022-11-17T10:22:03.203Z,96138.44
2022-11-17T10:24:42.782Z,96142.48
2022-11-17T10:27:22.023Z,96141.05
2022-11-17T10:30:00.629Z,96151.20
2022-11-17T10:32:30.305Z,96158.31
2022-11-17T10:35:15.511Z,96161.91
2022-11-17T10:38:03.730Z,96161.02
2022-11-17T10:40:33.150Z,96169.27
2022-11-17T10:43:04.104Z,96168.86
2022-11-17T10:45:32.839Z,96177.84
2022-11-17T10:48:24.625Z,96183.36
2022-11-17T10:50:58.845Z,96190.06
2022-11-17T10:53:32.935Z,96188.92
2022-11-17T10:56:25.089Z,96194.81
2022-11-17T10:58:56.896Z,96189.77
2022-11-17T11:01:31.879Z,96193.49
2022-11-17T11:04:00.128Z,96198.13
2022-11-17T11:06:29.918Z,96194.95
2022-11-17T11:09:14.398Z,96208.67
2022-11-17T11:11:49.653Z,96215.47
2022-11-17T11:14:39.617Z,96220.04
2022-11-17T11:17:15.376Z,96221.05
2022-11-17T11:19:46.202Z,96222.84
2022-11-17T11:22:23.187Z,96235.00
2022-11-17T11:25:10.142Z,96237.34
2022-11-17T11:27:48.308Z,96240.89
2022-11-17T11:30:18.107Z,96244.61
2022-11-17T11:33:01.846Z,96245.30
2022-11-17T11:35:32.894Z,96247.19
2022-11-17T11:38:19.905Z,96249.73
2022-11-17T11:41:02.521Z,96252.70
2022-11-17T11:43:40.216Z,96250.62
2022-11-17T11:46:14.328Z,96254.24
2022-11-17T11:48:42.298Z,96258.70
2022-11-17T11:51:10.368Z,96258.45
2022-11-17T11:53:44.463Z,96260.63
2022-11-17T11:56:15.732Z,96256.36
2022-11-17T11:58:51.788Z,96256.63
2022-11-17T12:01:21.591Z,96262.63
2022-11-17T12:03:56.868Z,96261.80
2022-11-17T12:06:41.489Z,96263.09
2022-11-17T12:09:25.122Z,96263.20
2022-11-17T12:12:02.850Z,96262.73
2022-11-17T12:14:32.258Z,96264.95
2022-11-17T12:17:16.062Z,96275.95
2022-11-17T12:19:44.238Z,96282.41
2022-11-17T12:22:18.936Z,96289.73
2022-11-17T12:24:47.134Z,96289.09
2022-11-17T12:27:32.100Z,96289.86
2022-11-17T12:30:01.087Z,96295.62
2022-11-17T12:32:44.366Z,96293.04
2022-11-17T12:35:29.156Z,96302.67
2022-11-17T12:38:09.365Z,96302.45
2022-11-17T12:40:41.615Z,96311.11
2022-11-17T12:43:15.471Z,96314.91
2022-11-17T12:45:58.743Z,96316.83
2022-11-17T12:48:34.779Z,96318.28
2022-11-17T12:51:06.558Z,96321.02
2022-11-17T12:53:37.604Z,96328.47
2022-11-17T12:56:18.522Z,96326.70
2022-11-17T12:58:52.912Z,96326.98
2022-11-17T13:01:39.876Z,96331.20
2022-11-17T13:04:08.580Z,96335.52
2022-11-17T13:06:37.019Z,96341.61
2022-11-17T13:09:07.206Z,96343.21
2022-11-17T13:11:35.453Z,96344.77
2022-11-17T13:14:11.426Z,96350.27
2022-11-17T13:16:48.621Z,96353.55
2022-11-17T13:19:35.102Z,96360.65
2022-11-17T13:22:06.013Z,96363.25
2022-11-17T13:24:35.723Z,96366.05
2022-11-17T13:27:07.789Z,96364.91
2022-11-17T13:29:36.144Z,96364.27
2022-11-17T13:32:21.035Z,96370.49
2022-11-17T13:34:53.837Z,96371.84
2022-11-17T13:37:26.407Z,96372.25
2022-11-17T13:39:55.302Z,96373.95
2022-11-17T13:42:25.040Z,96376.25
2022-11-17T13:44:57.588Z,96377.43
2022-11-17T13:47:41.319Z,96379.63
2022-11-17T13:50:21.584Z,96388.61
2022-11-17T13:53:00.922Z,96390.63
2022-11-17T13:55:29.602Z,96395.89
2022-11-17T13:58:00.201Z,96410.88
2022-11-17T14:00:29.527Z,96412.68
2022-11-17T14:02:59.030Z,96413.13
2022-11-17T14:05:29.047Z,96413.48
2022-11-17T14:07:58.656Z,96416.39
2022-11-17T14:10:28.235Z,96421.22
2022-11-17T14:13:00.235Z,96418.46
2022-11-17T14:15:34.712Z,96424.91
2022-11-17T14:18:05.681Z,96424.13
2022-11-17T14:20:34.682Z,96428.25
2022-11-17T14:23:09.098Z,96425.90
2022-11-17T14:25:39.828Z,96425.64
2022-11-17T14:28:14.327Z,96422.85
2022-11-17T14:30:42.314Z,96423.25
2022-11-17T14:33:13.537Z,96423.79
2022-11-17T14:35:43.064Z,96423.27
2022-11-17T14:38:14.513Z,96422.48
2022-11-17T14:40:42.449Z,96419.27
2022-11-17T14:43:10.429Z,96421.26
2022-11-17T14:45:38.919Z,96418.11
2022-11-17T14:48:07.308Z,96421.29
2022-11-17T14:50:35.199Z,96425.13
2022-11-17T14:53:03.530Z,96433.06
2022-11-17T14:55:31.527Z,96435.30
2022-11-17T14:57:59.511Z,96443.19
2022-11-17T15:00:27.870Z,96439.59
2022-11-17T15:02:55.942Z,96441.94
2022-11-17T15:05:24.144Z,96446.95
2022-11-17T15:07:52.383Z,96446.27
2022-11-17T15:10:20.664Z,96446.66
2022-11-17T15:12:48.630Z,96452.40
2022-11-17T15:15:18.172Z,96453.55
2022-11-17T15:17:46.307Z,96458.52
2022-11-17T15:20:14.312Z,96459.98
2022-11-17T15:22:42.550Z,96464.79
2022-11-17T15:25:10.562Z,96471.52
2022-11-17T15:27:38.794Z,96466.95
2022-11-17T15:30:07.100Z,96467.39
2022-11-17T15:32:36.366Z,96470.23
2022-11-17T15:35:04.436Z,96467.42
2022-11-17T15:37:32.405Z,96473.73
2022-11-17T15:40:00.643Z,96473.59
2022-11-17T15:42:28.764Z,96479.07
2022-11-17T15:44:56.717Z,96482.56
2022-11-17T15:47:24.891Z,96482.77
2022-11-17T15:49:58.673Z,96482.10
2022-11-17T15:52:48.867Z,96483.49
2022-11-17T15:55:14.804Z,96482.95
2022-11-17T15:57:43.489Z,96486.16
2022-11-17T16:00:12.177Z,96487.29
2022-11-17T16:02:43.727Z,96489.75
2022-11-17T16:05:11.703Z,96492.95
2022-11-17T16:07:40.180Z,96495.86
2022-11-17T16:10:08.859Z,96499.87
2022-11-17T16:12:36.838Z,96501.95
2022-11-17T16:15:05.313Z,96508.23
2022-11-17T16:17:33.276Z,96511.78
2022-11-17T16:20:01.454Z,96512.89
2022-11-17T16:22:29.975Z,96517.83
2022-11-17T16:24:58.409Z,96522.98
2022-11-17T16:27:26.383Z,96526.71
2022-11-17T16:29:54.350Z,96524.35
2022-11-17T16:32:22.396Z,96525.15
2022-11-17T16:34:50.485Z,96529.90
2022-11-17T16:37:18.559Z,96529.58
2022-11-17T16:39:46.524Z,96530.91
2022-11-17T16:42:14.902Z,96533.45
2022-11-17T16:44:43.049Z,96535.69
2022-11-17T16:47:11.259Z,96537.71
2022-11-17T16:49:39.318Z,96536.81
2022-11-17T16:52:07.601Z,96532.75
2022-11-17T16:54:35.569Z,96538.47
2022-11-17T16:57:03.549Z,96539.37
2022-11-17T16:59:31.470Z,96549.04
2022-11-17T17:01:59.420Z,96547.45
2022-11-17T17:04:30.116Z,96546.66
2022-11-17T17:06:58.747Z,96546.82
2022-11-17T17:09:28.203Z,96548.56
2022-11-17T17:11:56.670Z,96550.25
2022-11-17T17:14:24.737Z,96549.86
2022-11-17T17:16:52.907Z,96549.20
2022-11-17T17:19:20.781Z,96545.30
2022-11-17T17:21:48.946Z,96545.10
2022-11-17T17:24:17.222Z,96542.25
2022-11-17T17:26:45.394Z,96545.44
2022-11-17T17:29:14.324Z,96545.67
2022-11-17T17:31:42.768Z,96544.46
2022-11-17T17:34:12.372Z,96545.36
2022-11-17T17:36:40.956Z,96544.45
2022-11-17T17:39:14.307Z,96544.42
2022-11-17T17:41:44.418Z,96542.08
2022-11-17T17:44:16.843Z,96542.13
2022-11-17T17:46:45.831Z,96537.92
2022-11-17T17:49:14.761Z,96534.04
2022-11-17T17:51:44.608Z,96534.58
2022-11-17T17:54:17.313Z,96531.30
2022-11-17T17:56:45.900Z,96532.83
2022-11-17T17:59:14.365Z,96533.34
2022-11-17T18:01:42.561Z,96535.14
2022-11-17T18:04:15.520Z,96536.52
2022-11-17T18:06:47.585Z,96540.78
2022-11-17T18:09:19.237Z,96543.27
2022-11-17T18:11:50.560Z,96541.89
2022-11-17T18:14:29.220Z,96544.41
2022-11-17T18:16:57.596Z,96549.36
2022-11-17T18:19:31.400Z,96548.55
2022-11-17T18:22:01.413Z,96545.27
2022-11-17T18:24:29.580Z,96545.67
2022-11-17T18:26:57.559Z,96551.13
2022-11-17T18:29:25.604Z,96560.23
2022-11-17T18:31:53.907Z,96560.88
2022-11-17T18:34:23.008Z,96562.16
2022-11-17T18:36:52.081Z,96563.27
2022-11-17T18:39:21.495Z,96571.09
2022-11-17T18:41:49.872Z,96574.11
2022-11-17T18:44:20.630Z,96575.44
2022-11-17T18:46:48.985Z,96572.50
2022-11-17T18:49:17.397Z,96573.47
2022-11-17T18:51:46.558Z,96571.19
2022-11-17T18:54:14.631Z,96571.65
2022-11-17T18:56:44.447Z,96570.55
2022-11-17T18:59:12.753Z,96574.86
2022-11-17T19:01:41.989Z,96580.20
2022-11-17T19:04:11.824Z,96575.88
2022-11-17T19:06:39.793Z,96579.61
2022-11-17T19:09:08.483Z,96585.02
2022-11-17T19:11:37.250Z,96578.42
2022-11-17T19:14:08.133Z,96576.16
2022-11-17T19:16:44.441Z,96569.95
2022-11-17T19:19:14.065Z,96571.77
2022-11-17T19:21:42.888Z,96572.20
2022-11-17T19:24:12.384Z,96577.49
2022-11-17T19:26:40.740Z,96579.11
2022-11-17T19:29:16.136Z,96582.71
2022-11-17T19:31:45.895Z,96584.92
2022-11-17T19:34:14.652Z,96592.05
2022-11-17T19:36:42.648Z,96600.71
2022-11-17T19:39:11.711Z,96603.10
2022-11-17T19:41:40.123Z,96599.38
2022-11-17T19:44:09.017Z,96596.88
2022-11-17T19:46:37.491Z,96597.88
2022-11-17T19:49:06.342Z,96591.52
2022-11-17T19:51:36.823Z,96585.23
2022-11-17T19:54:06.525Z,96574.95
2022-11-17T19:56:35.442Z,96572.73
2022-11-17T19:59:03.862Z,96565.55
2022-11-17T20:01:32.289Z,96570.70
2022-11-17T20:04:01.255Z,96578.23
2022-11-17T20:06:32.003Z,96575.41
2022-11-17T20:09:00.075Z,96578.98
2022-11-17T20:11:28.849Z,96573.55
2022-11-17T20:13:56.995Z,96578.35
2022-11-17T20:16:26.340Z,96588.34
2022-11-17T20:18:55.479Z,96591.27
2022-11-17T20:21:23.954Z,96578.70
2022-11-17T20:23:52.572Z,96575.73
2022-11-17T20:26:22.592Z,96570.31
2022-11-17T20:28:50.865Z,96567.44
2022-11-17T20:31:20.471Z,96563.48
2022-11-17T20:33:48.747Z,96559.73
2022-11-17T20:36:18.439Z,96560.09
2022-11-17T20:38:53.797Z,96554.58
2022-11-17T20:41:23.482Z,96546.81
2022-11-17T20:43:52.701Z,96554.72
2022-11-17T20:46:21.366Z,96555.94
2022-11-17T20:48:49.560Z,96558.44
2022-11-17T20:51:18.862Z,96565.70
2022-11-17T20:53:47.341Z,96576.11
2022-11-17T20:56:18.640Z,96581.17
2022-11-17T20:58:46.761Z,96586.57
2022-11-17T21:01:16.118Z,96585.23
2022-11-17T21:03:45.487Z,96585.05
2022-11-17T21:06:14.249Z,96580.41
2022-11-17T21:08:43.498Z,96579.77
2022-11-17T21:11:36.115Z,96572.96
2022-11-17T21:14:05.632Z,96579.66
2022-11-17T21:16:34.994Z,96578.11
2022-11-17T21:19:03.271Z,96584.97
2022-11-17T21:21:31.344Z,96586.08
2022-11-17T21:23:59.845Z,96584.39
2022-11-17T21:26:30.862Z,96587.55
2022-11-17T21:29:04.804Z,96589.28
2022-11-17T21:31:35.302Z,96581.35
2022-11-17T21:34:04.776Z,96571.55
2022-11-17T21:36:34.512Z,96578.38
2022-11-17T21:39:02.787Z,96579.40
2022-11-17T21:41:31.983Z,96574.38
2022-11-17T21:44:01.945Z,96569.38
2022-11-17T21:46:31.211Z,96567.76
2022-11-17T21:49:00.097Z,96569.66
2022-11-17T21:51:30.078Z,96564.38
2022-11-17T21:53:58.993Z,96565.70
2022-11-17T21:56:27.897Z,96569.29
2022-11-17T21:58:57.384Z,96579.79
2022-11-17T22:01:25.473Z,96584.13
2022-11-17T22:03:53.635Z,96586.71
2022-11-17T22:06:23.114Z,96593.12
2022-11-17T22:08:51.589Z,96595.79
2022-11-17T22:11:39.221Z,96595.77
2022-11-17T22:14:14.225Z,96595.31
2022-11-17T22:16:43.829Z,96594.52
2022-11-17T22:19:12.698Z,96592.42
2022-11-17T22:21:41.281Z,96594.95
2022-11-17T22:24:10.347Z,96597.07
2022-11-17T22:26:41.199Z,96599.41
2022-11-17T22:29:17.451Z,96592.83
2022-11-17T22:31:46.537Z,96586.23
2022-11-17T22:34:14.710Z,96588.90
2022-11-17T22:36:43.197Z,96592.36
2022-11-17T22:39:11.221Z,96599.91
2022-11-17T22:41:39.645Z,96597.84
2022-11-17T22:44:07.702Z,96597.06
2022-11-17T22:46:36.424Z,96594.91
2022-11-17T22:49:04.467Z,96590.63
2022-11-17T22:51:51.270Z,96584.69
2022-11-17T22:54:20.064Z,96578.99
2022-11-17T22:56:48.651Z,96572.98
2022-11-17T22:59:16.736Z,96569.94
2022-11-17T23:01:45.094Z,96569.30
2022-11-17T23:04:14.095Z,96568.80
2022-11-17T23:06:42.572Z,96565.04
2022-11-17T23:09:11.054Z,96566.55
2022-11-17T23:11:39.219Z,96569.36
2022-11-17T23:14:09.240Z,96568.71
2022-11-17T23:16:37.815Z,96571.38
2022-11-17T23:19:06.703Z,96566.42
2022-11-17T23:21:35.085Z,96560.67
2022-11-17T23:24:04.288Z,96558.89
2022-11-17T23:26:32.355Z,96560.31
2022-11-17T23:29:00.531Z,96565.66
2022-11-17T23:31:28.704Z,96568.02
2022-11-17T23:33:57.189Z,96569.83
2022-11-17T23:36:25.355Z,96567.61
2022-11-17T23:38:55.981Z,96568.55
2022-11-17T23:41:24.255Z,96563.14
2022-11-17T23:43:53.356Z,96568.21
2022-11-17T23:46:23.060Z,96572.24
2022-11-17T23:48:51.180Z,96572.97
2022-11-17T23:51:20.619Z,96568.27
2022-11-17T23:53:49.679Z,96558.98
2022-11-17T23:56:19.496Z,96552.96
2022-11-17T23:58:47.533Z,96560.63
